Estación de Combarbala

Ultimos registro cada 15 minutos 92
Estación Fecha / Hora Temperatura Humedad Lluvia Velocidad Dirección Radiación Presion
92 Combarbala 08-05-2026 22:45 11 29,9 0 0 74 0,6 909,5
91 Combarbala 08-05-2026 22:30 11,2 32,1 0 0 74 0,6 909,5
90 Combarbala 08-05-2026 22:15 11,2 33,2 0 0 74 0,6 909,4
89 Combarbala 08-05-2026 22:00 11,4 33,6 0 0 74 0,6 909,6
88 Combarbala 08-05-2026 21:45 11 36,2 0 0 74 0,6 909,7
87 Combarbala 08-05-2026 21:30 11,5 33,4 0 0 74 0,6 909,5
86 Combarbala 08-05-2026 21:15 13 30,5 0 0 74 0,6 909,3
85 Combarbala 08-05-2026 21:00 13,2 31,7 0 0 74 0,6 909,2
84 Combarbala 08-05-2026 20:45 11,9 37,1 0 0 74 0,6 909,4
83 Combarbala 08-05-2026 20:30 12,5 36,4 0 0 74 0,6 909,4
82 Combarbala 08-05-2026 20:15 12 37,7 0 0 74 0,6 909,3
81 Combarbala 08-05-2026 20:00 12,7 36,5 0 0,5 74 0,6 909,3
80 Combarbala 08-05-2026 19:45 13,8 35 0 0,5 72 0,6 909,2
79 Combarbala 08-05-2026 19:30 13,8 35,1 0 0,5 72 0,6 909,1
78 Combarbala 08-05-2026 19:15 13,6 34,6 0 0,5 79 0,6 909
77 Combarbala 08-05-2026 19:00 14,6 32,6 0 0,5 112 0,6 908,8
76 Combarbala 08-05-2026 18:45 15 30,8 0 0,5 153 0,6 908,7
75 Combarbala 08-05-2026 18:30 19,1 19,3 0 1 152 0,6 908,6
74 Combarbala 08-05-2026 18:15 19,7 18,2 0 1 170 0,6 908,6
73 Combarbala 08-05-2026 18:00 18,4 22,8 0 1,5 225 3,1 908,5
72 Combarbala 08-05-2026 17:45 18,6 25,5 0 2 225 9,4 908,5
71 Combarbala 08-05-2026 17:30 19 28,1 0 2,5 223 29,4 908,1
70 Combarbala 08-05-2026 17:15 19,9 27,3 0 3 222 108,1 908,2
69 Combarbala 08-05-2026 17:00 20,9 25,7 0 2,5 227 150,6 908
68 Combarbala 08-05-2026 16:45 21,4 24,7 0 3 225 193,1 908
67 Combarbala 08-05-2026 16:30 22,2 24,2 0 3 220 233,1 907,7
66 Combarbala 08-05-2026 16:15 22,8 23,4 0 3 225 274,4 907,5
65 Combarbala 08-05-2026 16:00 23,5 21,1 0 3 223 313,1 907,5
64 Combarbala 08-05-2026 15:45 23 22,5 0 3,5 227 355,6 907,3
63 Combarbala 08-05-2026 15:30 24 19,9 0 3 229 386,9 907,7
62 Combarbala 08-05-2026 15:15 25 17,3 0 3 257 426,9 907,5
61 Combarbala 08-05-2026 15:00 25,1 16,8 0 3 265 468,1 907,5
60 Combarbala 08-05-2026 14:45 25,1 16,5 0 3 251 499,4 907,4
59 Combarbala 08-05-2026 14:30 25,9 16,4 0 3 246 529,4 907,4
58 Combarbala 08-05-2026 14:15 26 15,1 0 1,5 230 551,9 907,4
57 Combarbala 08-05-2026 14:00 26,9 11,8 0 2 220 573,1 907,5
56 Combarbala 08-05-2026 13:45 25,5 15 0 2,5 236 586,9 907,8
55 Combarbala 08-05-2026 13:30 25,1 14,2 0 3,5 250 601,9 908,1
54 Combarbala 08-05-2026 13:15 25,8 13,9 0 2,5 234 615,6 907,9
53 Combarbala 08-05-2026 13:00 27,5 11,1 0 1,5 190 628,1 908
52 Combarbala 08-05-2026 12:45 27,1 11,1 0 1 168 635,6 908,1
51 Combarbala 08-05-2026 12:30 25,7 12,1 0 2,5 246 624,4 908,5
50 Combarbala 08-05-2026 12:15 24,5 14,2 0 2,5 243 623,1 908,8
49 Combarbala 08-05-2026 12:00 24,7 14,5 0 2 248 618,1 908,8
48 Combarbala 08-05-2026 11:45 24,6 14,8 0 1,5 265 604,4 909
47 Combarbala 08-05-2026 11:30 24,7 13,8 0 1,5 248 586,9 909
46 Combarbala 08-05-2026 11:15 23,9 14,5 0 0,5 53 570,6 909
45 Combarbala 08-05-2026 11:00 23,9 15,5 0 0,5 358 551,9 909,3
44 Combarbala 08-05-2026 10:45 22,5 17,2 0 0 31 518,1 909,2
43 Combarbala 08-05-2026 10:30 21,7 17,8 0 0 53 496,9 909,2
42 Combarbala 08-05-2026 10:15 20,9 18,5 0 0 55 453,1 909,5
41 Combarbala 08-05-2026 10:00 18,7 21,3 0 0,5 70 300,6 909,6
40 Combarbala 08-05-2026 09:45 18 21 0 0,5 79 339,4 909,8
39 Combarbala 08-05-2026 09:30 17,4 21,4 0 0 79 244,4 909,9
38 Combarbala 08-05-2026 09:15 16,6 23,5 0 0 97 269,4 909,7
37 Combarbala 08-05-2026 09:00 15,8 25,3 0 0,5 102 234,4 909,8
36 Combarbala 08-05-2026 08:45 16,7 25,9 0 0 105 248,1 910,1
35 Combarbala 08-05-2026 08:30 14,5 28,9 0 0 105 173,1 909,7
34 Combarbala 08-05-2026 08:15 13,7 29,3 0 0 105 116,9 909,8
33 Combarbala 08-05-2026 08:00 11,2 32,3 0 0 105 106,9 909,8
32 Combarbala 08-05-2026 07:45 10,3 33,2 0 0 105 26,9 909,8
31 Combarbala 08-05-2026 07:30 9,9 33,2 0 0 105 11,9 909,6
30 Combarbala 08-05-2026 07:15 9,8 34,7 0 0 105 5,6 909,5
29 Combarbala 08-05-2026 07:00 9,9 34,3 0 0 105 0,6 909,4
28 Combarbala 08-05-2026 06:45 10,5 33,6 0 0 105 0,6 909,5
27 Combarbala 08-05-2026 06:30 10,4 34,7 0 0 105 0,6 909,4
26 Combarbala 08-05-2026 06:15 10,3 35,2 0 0 105 0,6 909,3
25 Combarbala 08-05-2026 06:00 10,5 35,4 0 0 105 0,6 909,1
24 Combarbala 08-05-2026 05:45 9,9 34,8 0 0 105 0,6 909,2
23 Combarbala 08-05-2026 05:30 10,2 34,1 0 0 105 0,6 909,4
22 Combarbala 08-05-2026 05:15 10,2 33,6 0 0 105 0,6 909,5
21 Combarbala 08-05-2026 05:00 10,9 32,1 0 0 105 0,6 909,4
20 Combarbala 08-05-2026 04:45 11,2 31,4 0 0,5 105 0,6 909,2
19 Combarbala 08-05-2026 04:30 11,4 31,3 0 0 105 0,6 909,2
18 Combarbala 08-05-2026 04:15 11,1 32,8 0 0 105 0,6 909,2
17 Combarbala 08-05-2026 04:00 10,5 34,2 0 0 105 0,6 909,4
16 Combarbala 08-05-2026 03:45 10,8 34,2 0 0 105 0,6 909,4
15 Combarbala 08-05-2026 03:30 11,4 34 0 0 105 0,6 909,6
14 Combarbala 08-05-2026 03:15 11,5 34,6 0 0 105 0,6 909,8
13 Combarbala 08-05-2026 03:00 11,9 34,1 0 0 107 0,6 909,8
12 Combarbala 08-05-2026 02:45 12,2 34,8 0 0 107 0,6 909,9
11 Combarbala 08-05-2026 02:30 12,4 36 0 0 108 0,6 910,2
10 Combarbala 08-05-2026 02:15 12,2 38,5 0 0 83 0,6 910,4
9 Combarbala 08-05-2026 02:00 11,8 39,8 0 0,5 66 0,6 910,3
8 Combarbala 08-05-2026 01:45 11,7 40,3 0 0 358 0,6 910,1
7 Combarbala 08-05-2026 01:30 11,9 41,1 0 0,5 32 0,6 910,4
6 Combarbala 08-05-2026 01:15 11,9 41 0 0 52 0,6 910,7
5 Combarbala 08-05-2026 01:00 11,9 41,4 0 0 52 0,6 910,6
4 Combarbala 08-05-2026 00:45 11,6 41,1 0 0 32 0,6 910,9
3 Combarbala 08-05-2026 00:30 11,1 42,3 0 0,5 76 0,6 911
2 Combarbala 08-05-2026 00:15 11,8 42,1 0 0 86 0,6 910,8
1 Combarbala 08-05-2026 00:00 11,5 43,2 0 0,5 76 0,6 911